createdAt,value
2018-12-03T00:04:37.906Z,21.11
2018-12-03T00:09:40.867Z,21.15
2018-12-03T00:14:44.080Z,21.16
2018-12-03T00:19:47.287Z,21.12
2018-12-03T00:24:50.481Z,21.14
2018-12-03T00:29:53.629Z,21.11
2018-12-03T00:34:56.812Z,21.14
2018-12-03T00:39:59.981Z,21.17
2018-12-03T00:45:03.199Z,21.14
2018-12-03T00:50:06.454Z,21.15
2018-12-03T00:55:09.661Z,21.16
2018-12-03T01:00:12.857Z,21.16
2018-12-03T01:05:16.077Z,21.16
2018-12-03T01:10:19.267Z,21.16
2018-12-03T01:15:22.482Z,21.17
2018-12-03T01:20:25.682Z,21.15
2018-12-03T01:25:28.890Z,21.13
2018-12-03T01:30:32.127Z,21.11
2018-12-03T01:35:35.298Z,21.14
2018-12-03T01:40:38.441Z,21.13
2018-12-03T01:45:41.628Z,21.12
2018-12-03T01:50:44.846Z,21.08
2018-12-03T01:55:48.043Z,21.11
2018-12-03T02:00:51.245Z,21.13
2018-12-03T02:05:54.459Z,21.09
2018-12-03T02:10:57.675Z,21.11
2018-12-03T02:16:00.872Z,21.12
2018-12-03T02:21:04.089Z,21.12
2018-12-03T02:26:07.297Z,21.11
2018-12-03T02:31:10.490Z,21.09
2018-12-03T02:36:13.725Z,21.12
2018-12-03T02:41:16.914Z,21.09
2018-12-03T02:46:20.142Z,21.06
2018-12-03T02:51:23.334Z,21.08
2018-12-03T02:56:26.554Z,21.10
2018-12-03T03:01:29.746Z,21.07
2018-12-03T03:06:32.978Z,21.09
2018-12-03T03:11:36.161Z,21.07
2018-12-03T03:16:39.373Z,21.09
2018-12-03T03:21:42.581Z,21.10
2018-12-03T03:26:45.790Z,21.09
2018-12-03T03:31:49.003Z,21.07
2018-12-03T03:36:52.206Z,21.09
2018-12-03T03:41:55.346Z,21.07
2018-12-03T03:46:58.522Z,21.05
2018-12-03T03:52:01.742Z,21.08
2018-12-03T03:57:05.150Z,21.06
2018-12-03T04:02:08.355Z,21.10
2018-12-03T04:07:11.553Z,21.07
2018-12-03T04:12:14.774Z,21.06
2018-12-03T04:17:17.987Z,21.08
2018-12-03T04:22:21.181Z,21.07
2018-12-03T04:27:24.403Z,21.06
2018-12-03T04:32:27.604Z,21.07
2018-12-03T04:37:30.817Z,21.09
2018-12-03T04:42:34.042Z,21.06
2018-12-03T04:47:37.450Z,21.09
2018-12-03T04:52:40.659Z,21.11
2018-12-03T04:57:43.858Z,21.11
2018-12-03T05:02:49.426Z,21.05
2018-12-03T05:07:52.641Z,21.08
2018-12-03T05:12:55.865Z,21.07
2018-12-03T05:17:59.073Z,21.04
2018-12-03T05:23:02.271Z,21.04
2018-12-03T05:28:05.594Z,21.07
2018-12-03T05:33:08.766Z,21.05
2018-12-03T05:38:12.015Z,21.03
2018-12-03T05:43:15.213Z,21.04
2018-12-03T05:48:18.427Z,21.01
2018-12-03T05:53:21.622Z,21.02
2018-12-03T05:58:24.845Z,21.01
2018-12-03T06:03:28.034Z,21.03
2018-12-03T06:08:31.247Z,21.03
2018-12-03T06:13:34.466Z,21.05
2018-12-03T06:18:37.657Z,21.03
2018-12-03T06:23:40.886Z,21.06
2018-12-03T06:28:44.088Z,21.02
2018-12-03T06:33:47.297Z,21.04
2018-12-03T06:38:50.506Z,21.01
2018-12-03T06:43:53.669Z,21.04
2018-12-03T06:48:56.834Z,21.04
2018-12-03T06:54:00.030Z,21.04
2018-12-03T06:59:03.242Z,21.01
2018-12-03T07:04:06.553Z,21.03
2018-12-03T07:09:11.609Z,21.03
2018-12-03T07:14:14.776Z,21.00
2018-12-03T07:19:18.019Z,21.02
2018-12-03T07:24:21.235Z,21.03
2018-12-03T07:29:24.438Z,20.98
2018-12-03T07:34:27.641Z,20.50
2018-12-03T07:39:30.846Z,19.78
2018-12-03T07:44:34.053Z,19.47
2018-12-03T07:49:37.261Z,19.69
2018-12-03T07:54:40.462Z,19.61
2018-12-03T07:59:43.783Z,19.54
2018-12-03T08:04:46.997Z,19.54
2018-12-03T08:09:50.206Z,19.50
2018-12-03T08:14:53.413Z,19.47
2018-12-03T08:19:56.690Z,19.58
2018-12-03T08:24:59.834Z,19.82
2018-12-03T08:30:03.490Z,20.03
2018-12-03T08:35:10.954Z,20.18
2018-12-03T08:40:16.317Z,20.27
2018-12-03T08:45:20.053Z,20.35
2018-12-03T08:50:28.233Z,20.40
2018-12-03T08:55:31.474Z,20.44
2018-12-03T09:00:34.678Z,20.47
2018-12-03T09:05:39.133Z,20.50
2018-12-03T09:10:43.357Z,20.53
2018-12-03T09:15:54.146Z,20.57
2018-12-03T09:20:58.165Z,20.58
2018-12-03T09:26:01.382Z,20.62
2018-12-03T09:31:04.700Z,20.63
2018-12-03T09:36:07.890Z,20.67
2018-12-03T09:41:11.110Z,20.68
2018-12-03T09:46:14.328Z,20.66
2018-12-03T09:51:17.518Z,20.67
2018-12-03T09:56:20.733Z,20.70
2018-12-03T10:01:23.933Z,20.67
2018-12-03T10:06:27.149Z,20.73
2018-12-03T10:11:30.363Z,20.75
2018-12-03T10:16:33.555Z,20.74
2018-12-03T10:21:36.863Z,20.72
2018-12-03T10:26:40.178Z,20.73
2018-12-03T10:31:43.381Z,20.76
2018-12-03T10:36:52.622Z,20.81
2018-12-03T10:41:57.894Z,20.84
2018-12-03T10:47:01.105Z,20.85
2018-12-03T10:52:04.318Z,20.89
2018-12-03T10:57:08.846Z,20.91
2018-12-03T11:02:17.266Z,20.90
2018-12-03T11:07:20.476Z,20.91
2018-12-03T11:12:23.694Z,20.93
2018-12-03T11:17:26.910Z,20.92
2018-12-03T11:22:30.110Z,20.94
2018-12-03T11:27:35.979Z,20.98
2018-12-03T11:32:39.194Z,20.98
2018-12-03T11:37:44.150Z,20.97
2018-12-03T11:42:47.346Z,20.99
2018-12-03T11:47:50.493Z,20.99
2018-12-03T11:52:53.662Z,20.98
2018-12-03T11:57:56.874Z,21.02
2018-12-03T12:03:00.075Z,20.99
2018-12-03T12:08:03.300Z,21.02
2018-12-03T12:13:06.498Z,21.05
2018-12-03T12:18:09.703Z,21.03
2018-12-03T12:23:12.857Z,21.05
2018-12-03T12:28:16.009Z,21.05
2018-12-03T12:33:19.218Z,21.03
2018-12-03T12:38:22.434Z,21.03
2018-12-03T12:43:25.638Z,21.08
2018-12-03T12:48:28.794Z,21.08
2018-12-03T12:53:31.970Z,21.10
2018-12-03T12:58:35.167Z,21.08
2018-12-03T13:03:38.381Z,21.08
2018-12-03T13:08:41.578Z,21.11
2018-12-03T13:13:44.798Z,21.11
2018-12-03T13:18:47.998Z,21.10
2018-12-03T13:23:51.200Z,21.12
2018-12-03T13:28:54.418Z,21.12
2018-12-03T13:33:57.634Z,21.13
2018-12-03T13:39:00.870Z,21.12
2018-12-03T13:44:04.077Z,21.14
2018-12-03T13:49:08.073Z,21.15
2018-12-03T13:54:11.274Z,21.13
2018-12-03T13:59:14.422Z,21.13
2018-12-03T14:04:17.588Z,21.10
2018-12-03T14:09:30.561Z,21.15
2018-12-03T14:14:44.519Z,21.17
2018-12-03T14:19:51.286Z,21.16
2018-12-03T14:24:54.488Z,21.15
2018-12-03T14:29:57.697Z,21.12
2018-12-03T14:35:00.905Z,21.15
2018-12-03T14:40:04.741Z,21.12
2018-12-03T14:45:11.014Z,21.17
2018-12-03T14:50:14.209Z,21.17
2018-12-03T14:55:17.479Z,21.18
2018-12-03T15:00:20.637Z,21.18
2018-12-03T15:05:23.853Z,21.16
2018-12-03T15:10:27.008Z,21.14
2018-12-03T15:15:30.162Z,21.11
2018-12-03T15:20:33.366Z,21.13
2018-12-03T15:25:36.579Z,21.13
2018-12-03T15:30:39.745Z,21.14
2018-12-03T15:35:42.898Z,21.19
2018-12-03T15:40:46.108Z,21.18
2018-12-03T15:45:49.310Z,21.20
2018-12-03T15:50:52.509Z,21.21
2018-12-03T15:55:55.726Z,21.21
2018-12-03T16:00:58.877Z,21.19
2018-12-03T16:06:02.039Z,21.20
2018-12-03T16:11:05.195Z,21.21
2018-12-03T16:16:08.355Z,21.18
2018-12-03T16:21:11.561Z,21.18
2018-12-03T16:26:14.764Z,21.20
2018-12-03T16:31:18.006Z,21.19
2018-12-03T16:36:21.644Z,21.19
2018-12-03T16:41:24.810Z,21.19
2018-12-03T16:46:28.017Z,21.21
2018-12-03T16:51:31.218Z,21.22
2018-12-03T16:56:34.438Z,21.24
2018-12-03T17:01:37.634Z,21.25
2018-12-03T17:06:40.853Z,21.23
2018-12-03T17:11:44.567Z,21.21
2018-12-03T17:16:47.773Z,21.26
2018-12-03T17:22:05.318Z,21.29
2018-12-03T17:27:08.542Z,21.34
2018-12-03T17:32:11.697Z,21.33
2018-12-03T17:37:14.858Z,21.31
2018-12-03T17:42:18.063Z,21.32
2018-12-03T17:47:21.274Z,21.29
2018-12-03T17:52:24.466Z,21.30
2018-12-03T17:57:27.673Z,21.30
2018-12-03T18:02:31.608Z,21.30
2018-12-03T18:07:34.824Z,21.30
2018-12-03T18:12:38.038Z,21.33
2018-12-03T18:17:41.209Z,21.32
2018-12-03T18:22:44.434Z,21.34
2018-12-03T18:27:47.662Z,21.32
2018-12-03T18:32:50.877Z,21.32
2018-12-03T18:37:54.066Z,21.33
2018-12-03T18:42:57.266Z,21.31
2018-12-03T18:48:00.506Z,21.30
2018-12-03T18:53:10.662Z,21.31
2018-12-03T18:58:16.230Z,21.33
2018-12-03T19:03:19.386Z,21.33
2018-12-03T19:08:22.534Z,21.30
2018-12-03T19:13:25.746Z,21.32
2018-12-03T19:18:28.946Z,21.32
2018-12-03T19:23:32.151Z,21.32
2018-12-03T19:28:35.361Z,21.30
2018-12-03T19:33:38.569Z,21.30
2018-12-03T19:38:41.774Z,21.29
2018-12-03T19:43:44.986Z,21.29
2018-12-03T19:48:48.190Z,21.30
2018-12-03T19:54:20.532Z,21.30
2018-12-03T19:59:23.274Z,21.32
2018-12-03T20:04:31.350Z,21.30
2018-12-03T20:09:33.830Z,21.29
2018-12-03T20:14:36.326Z,21.29
2018-12-03T20:19:38.871Z,21.26
2018-12-03T20:24:41.800Z,21.25
2018-12-03T20:29:44.510Z,21.26
2018-12-03T20:34:46.986Z,21.26
2018-12-03T20:39:53.301Z,21.30
2018-12-03T20:44:56.023Z,21.32
2018-12-03T20:49:59.321Z,21.34
2018-12-03T20:55:01.896Z,21.35
2018-12-03T21:00:07.942Z,21.35
2018-12-03T21:05:10.614Z,21.35
2018-12-03T21:10:13.210Z,21.38
2018-12-03T21:15:15.718Z,21.38
2018-12-03T21:20:18.215Z,21.35
2018-12-03T21:25:21.028Z,21.34
2018-12-03T21:30:23.586Z,21.35
2018-12-03T21:35:26.081Z,21.35
2018-12-03T21:40:28.556Z,21.33
2018-12-03T21:45:31.034Z,21.36
2018-12-03T21:50:33.658Z,21.35
2018-12-03T21:55:36.278Z,21.28
2018-12-03T22:00:39.327Z,21.34
2018-12-03T22:05:41.829Z,21.31
2018-12-03T22:10:44.302Z,21.24
2018-12-03T22:15:46.773Z,21.25
2018-12-03T22:20:49.433Z,21.22
2018-12-03T22:25:52.556Z,21.22
2018-12-03T22:30:55.137Z,21.21
2018-12-03T22:35:57.635Z,21.18
2018-12-03T22:41:00.786Z,21.22
2018-12-03T22:46:04.026Z,21.18
2018-12-03T22:51:06.518Z,21.19
2018-12-03T22:56:09.013Z,21.19
2018-12-03T23:01:13.501Z,21.16
2018-12-03T23:06:16.049Z,21.16
2018-12-03T23:11:18.642Z,21.17
2018-12-03T23:16:21.237Z,21.18
2018-12-03T23:21:23.829Z,21.15
2018-12-03T23:26:26.431Z,21.14
2018-12-03T23:31:28.962Z,21.15
2018-12-03T23:36:31.514Z,21.15
2018-12-03T23:41:34.107Z,21.14
2018-12-03T23:46:36.698Z,21.15
2018-12-03T23:51:39.192Z,21.14
2018-12-03T23:56:41.748Z,21.14
